NWS Home NWS Lubbock West Texas Mesonet Central Sector Latest Conditions as of 0228 AM, Sun Mar 24, 2019

Latest   N   C   S   Daily Sum   3hrΔ   24hrΔ   Soil Data 
Site Map   24hr Precip   72hr Precip   Google Plot


Station Time of Last Temp Dew Pt. RH Wind Direction Wind Speed Wind Gust Max Wind Max Temp Min Temp Max RH Min RH Altimeter 1HR Rain Today's Rain Solar Rad
Abernathy 5ENE  02:20 AM 42 28 57% W78 13 mph 294° @ 0110 AM 48 42 57 44 30.00" 0 0.00 0
Aiken 3WSW  02:20 AM 41 27 56% SW89 13 mph 272° @ 1240 AM 45 40 60 50 30.01" 0 0.00 0
Amherst 1NE  02:20 AM 47 24 41% W1112 14 mph 251° @ 0135 AM 51 46 43 32 30.01" 0 0.00 0
Anton 6SSW  02:20 AM 44 25 48% NW67 16 mph 211° @ 1225 AM 49 44 48 43 30.01" 0 0.00 0
Aspermont 3NE  02:20 AM 53 35 50% S1112 12 mph 177° @ 0220 AM 56 53 52 46 29.96" 0 0.00 0
Bootleg 11WNW  02:20 AM 46 28 51% NW1317 17 mph 316° @ 0216 AM 47 42 56 45 30.07" 0 0.00 0
Brownfield 2S  02:20 AM 47 25 43% SW910 10 mph 232° @ 0220 AM 51 43 55 36 30.00" 0 0.00 0
Caprock Canyons State Park  02:20 AM 60 21 22% SW1214 23 mph 248° @ 0138 AM 62 55 31 21 29.97" 0 0.00 0
Childress 2NNE  02:10 AM 51 42 74% SE88 11 mph 117° @ 1245 AM 55 51 74 64 29.93" 0 0.00 0
Clarendon 2WSW  02:20 AM 46 36 69% SW24 16 mph 133° @ 1245 AM 54 45 73 55 29.95" 0 0.00 0
Claude 12SW  02:20 AM 54 31 41% SW78 15 mph 224° @ 0218 AM 54 51 54 41 29.97" 0 0.00 0
Crowell 1E  02:20 AM 52 36 54% SE56 9 mph 3° @ 1232 AM 60 51 59 36 29.95" 0 0.00 0
Denver City 7WNW  02:20 AM 46 20 35% W1013 14 mph 244° @ 0200 AM 47 44 42 35 30.02" 0 0.00 0
Dimmitt 2NE  02:20 AM 45 32 59% W1011 14 mph 261° @ 0130 AM 49 44 63 48 30.01" 0 0.00 0
Dora NM 2SW  02:20 AM 47 18 32% SW910 12 mph 246° @ 1205 AM 48 46 32 29 30.04" 0 0.00 0
Earth 9WSW  02:20 AM 46 24 42% SW910 18 mph 229° @ 1231 AM 59 42 54 22 30.03" 0 0.00 0
Estelline 3SSE  02:20 AM 48 40 75% SW66 12 mph 116° @ 1226 AM 58 47 75 54 29.94" 0 0.00 0
Floydada 2NNE  02:20 AM 42 25 51% W89 16 mph 203° @ 1215 AM 57 42 51 24 29.99" 0 0.00 0
Fluvanna 3WNW  02:20 AM 53 31 43% S46 9 mph 176° @ 0105 AM 55 52 43 39 29.99" 0 0.00 0
Friona 2NE  02:20 AM 41 33 73% W910 15 mph 244° @ 0105 AM 47 40 73 53 30.03" 0 0.00 0
Gail 2ESE  02:20 AM 54 27 36% SW1010 11 mph 219° @ 0200 AM 56 53 37 31 29.99" 0 0.00 0
Goodlett 3W  02:20 AM 52 41 67% SE67 14 mph 109° @ 1235 AM 55 51 71 64 29.92" 0 0.00 0
Graham 5SSW  02:20 AM 56 25 30% SW79 10 mph 219° @ 0105 AM 58 52 37 26 29.99" 0 0.00 0
Guthrie 10WSW  02:20 AM 53 31 43% SW47 12 mph 204° @ 1250 AM 56 53 43 37 29.95" 0 0.00 0
Hackberry 2 SSE  02:20 AM 58 33 39% SW1617 21 mph 209° @ 0208 AM 61 58 39 34 29.93" 0 0.00 0
Happy 1E  02:20 AM 44 34 67% W1214 17 mph 262° @ 0154 AM 46 42 73 62 30.00" 0 0.00 0
Hart 3N  02:20 AM 41 28 60% W1015 15 mph 266° @ 0220 AM 44 40 62 49 30.01" 0 0.00 0
Haskell 1NW  02:20 AM 53 47 83% S911 13 mph 173° @ 0125 AM 57 53 83 45 29.96" 0 0.00 0
Hereford 2NW  02:20 AM 45 32 62% NW1113 16 mph 288° @ 0130 AM 46 41 76 59 30.00" 0 0.00 0
Hobbs NM 5NW  02:20 AM 47 20 33% S89 12 mph 273° @ 0136 AM 53 47 33 23 30.06" 0 0.00 0
Jayton 1SSE  02:20 AM 53 33 47% SW56 7 mph 219° @ 0140 AM 55 52 48 41 29.97" 0 0.00 0
Knox City 3NW  02:20 AM 50 38 64% SW910 12 mph 151° @ 0155 AM 51 47 74 58 29.95" 0 0.00 0
Lake Alan Henry 1NW  02:20 AM 52 32 47% SW78 8 mph 223° @ 1246 AM 55 52 48 42 29.97" 0 0.00 0
Lamesa 2SE  02:20 AM 47 29 50% SW56 13 mph 204° @ 1250 AM 52 45 57 38 30.01" 0 0.00 0
Lesley 2S  02:20 AM 55 42 62% SE44 12 mph 87° @ 0124 AM 56 49 74 54 29.94" 0 0.00 0
Levelland 4S  02:20 AM 42 32 67% SW89 11 mph 238° @ 0210 AM 49 42 69 46 30.01" 0 0.00 0
Lubbock 3WNW TTU  02:20 AM 50 22 33% SW67 11 mph 208° @ 1255 AM 54 50 34 28 30.00" 0 0.00 0
Memphis 1NE  02:20 AM 46 41 84% NW35 8 mph 95° @ 1215 AM 56 46 84 60 29.94" 0 0.00 0
Morton 1ENE  02:20 AM 43 23 46% NW810 11 mph 288° @ 0210 AM 49 42 47 31 30.01" 0 0.00 0
Muleshoe 2SSW  02:20 AM 41 26 54% SW56 10 mph 227° @ 1210 AM 46 40 57 40 30.02" 0 0.00 0
New Home  02:20 AM 48 26 42% SW77 11 mph 199° @ 0116 AM 53 48 42 32 30.01" 0 0.00 0
Northfield 1S  01:40 AM 52 36 55% SE35 11 mph 53° @ 1220 AM 56 52 56 41 29.94" 0 0.00 0
O'Donnell 1N  02:20 AM 47 27 46% S67 9 mph 194° @ 0140 AM 53 47 46 31 30.00" 0 0.00 0
Odell 4ENE  02:20 AM 55 42 63% SE1011 15 mph 95° @ 1234 AM 59 52 74 59 29.93" 0 0.00 0
Olton 6S  02:20 AM 45 25 46% W1112 15 mph 258° @ 1205 AM 47 42 54 45 30.00" 0 0.00 0
Paducah 10SW  02:20 AM 57 29 34% SW1518 20 mph 230° @ 0200 AM 58 56 37 33 29.94" 0 0.00 0
Palo Duro 4E (JA Ranch)  02:20 AM 42 36 79% SW44 9 mph 254° @ 1212 AM 50 41 80 61 29.96" 0 0.00 0
Palo Duro Canyon SP Floor  02:20 AM 43 38 83% NW67 7 mph 309° @ 0220 AM 47 43 88 79 29.97" 0 0.00 0
Palo Duro Canyon State Park Rim  02:20 AM 50 32 51% W1720 20 mph 254° @ 0220 AM 52 47 63 47 29.99" 0 0.00 0
Plains 3N  02:20 AM 41 29 61% NW68 12 mph 226° @ 0100 AM 52 41 61 29 30.02" 0 0.00 0
Plainview 1S  02:20 AM 45 28 52% SW67 12 mph 257° @ 1215 AM 51 45 52 39 29.99" 0 0.00 0
Post 1NE  02:20 AM 58 23 26% SW1012 12 mph 227° @ 0220 AM 58 55 31 26 29.97" 0 0.00 0
Ralls 1SE  02:20 AM 50 26 40% SW911 12 mph 220° @ 0205 AM 50 46 52 39 30.00" 0 0.00 0
Reese Center  02:20 AM 46 29 54% SW56 13 mph 210° @ 1235 AM 49 44 59 46 30.00" 0 0.00 0
Roaring Springs 3N  02:20 AM 53 28 38% SW913 13 mph 242° @ 0220 AM 55 52 44 34 29.96" 0 0.00 0
Rotan 5W  02:20 AM 56 33 43% S1415 15 mph 180° @ 0220 AM 58 55 43 39 29.98" 0 0.00 0
Seagraves 1SW  02:20 AM 43 27 52% SW56 11 mph 215° @ 1245 AM 46 42 64 49 30.01" 0 0.00 0
Seminole 2NNE  02:10 AM 53 20 27% W911 13 mph 248° @ 0145 AM 56 52 30 23 30.01" 0 0.00 0
Seymour 3NW  02:20 AM 56 53 92% S56 11 mph 169° @ 1235 AM 59 56 92 74 29.94" 0 0.00 0
Silverton 7ESE  02:20 AM 47 27 46% SW1214 14 mph 232° @ 0130 AM 49 45 56 44 29.98" 0 0.00 0
Slaton 2NE  02:20 AM 50 26 39% SW1113 15 mph 199° @ 1205 AM 53 49 41 33 29.99" 0 0.00 0
Snyder 3E  02:20 AM 52 35 52% S1011 12 mph 174° @ 0210 AM 57 52 52 41 29.99" 0 0.00 0
Snyder 3SSW  02:20 AM 53 35 50% S1112 14 mph 183° @ 0157 AM 56 52 51 42 30.00" 0 0.00 0
South Plains 3ENE  02:20 AM 47 26 44% SW810 16 mph 283° @ 0110 AM 51 45 48 37 29.98" 0 0.00 0
Spur 1W  02:20 AM 45 30 57% NW34 7 mph 232° @ 1205 AM 52 45 57 35 29.97" 0 0.00 0
Stamford 5ESE  02:20 AM 58 53 84% S1010 17 mph 178° @ 0213 AM 58 54 85 46 29.98" 0 0.00 0
Sundown 8WSW  02:20 AM 41 27 56% SW1011 13 mph 212° @ 1205 AM 49 41 56 39 30.01" 0 0.00 0
Tahoka 3NNE  02:20 AM 46 26 46% S77 9 mph 198° @ 0100 AM 55 46 46 27 30.00" 0 0.00 0
Tatum NM 2SW  02:20 AM 41 25 53% W1010 13 mph 275° @ 0100 AM 44 39 55 43 30.04" 0 0.00 0
Throckmorton 1SW  02:20 AM 60 58 92% S1012 19 mph 182° @ 0156 AM 62 60 92 89 29.97" 0 0.00 0
Tulia 2ENE  02:20 AM 50 26 40% W1418 18 mph 251° @ 0220 AM 51 49 42 38 29.99" 0 0.00 0
Turkey 2WSW  02:20 AM 50 29 45% SW1213 17 mph 227° @ 0210 AM 56 50 45 32 29.95" 0 0.00 0
Umbarger 3NNE  02:20 AM 45 35 69% NW1517 20 mph 299° @ 0214 AM 46 43 81 67 30.00" 0 0.00 0
Vigo Park  02:20 AM 43 29 57% W1011 13 mph 224° @ 1234 AM 45 41 61 55 29.99" 0 0.00 0
Weinert 2NNE  02:20 AM 57 50 78% S1416 19 mph 189° @ 0209 AM 60 56 78 38 29.95" 0 0.00 0
Welch  02:20 AM 43 27 53% SW33 12 mph 206° @ 1230 AM 48 43 53 37 30.01" 0 0.00 0
White River Lake 6NW  02:20 AM 58 22 25% SW911 12 mph 199° @ 0105 AM 59 55 29 23 29.98" 0 0.00 0
Wolfforth 6SSW  02:20 AM 46 25 44% S1010 11 mph 209° @ 0100 AM 48 45 47 40 30.00" 0 0.00 0

West Texas Mesonet Home   Site Map/Menu  NWS Lubbock Soil Data  Daily Summary Page  24hr Precip  72hr Precip  Google Plot